Fair Oaks, Arkansas
Current Conditions -  °F | °C
As of 10:56 AM on Friday 31 Oct 2014 (Local Time) from KM19 Reporting Station
Scattered Clouds Scattered Clouds  
Wind Chill: 58°   Ceiling: Unl
Heat Index: 58°   Visibility: 10mi
Dew Point: 44°   Wind: 21mph
Humidity: 60%   Direction: 350°N
Pressure: 30.2"   Gusts: 28mph
Location:  35.2139°N, 91.1509°W
Report Text: KM19 311556Z AUTO 35018G24KT 10SM SCT029 14/07 A3020 RMK AO2 T01440066 PK WND 01028/1546 SLP226
Loading
Personal Weather Stations






























Interactive Weather Map
Tropical Storm Tracking
New forecast layout! Learn more

10-Day Weather Forecast

Advertisements
Track Severe Weather on mobile